createdAt,value
2017-04-24T07:57:30.820Z,5632
2017-04-24T07:58:39.442Z,5292
2017-04-24T07:59:48.069Z,5500
2017-04-24T08:00:56.993Z,5352
2017-04-24T08:02:05.618Z,5324
2017-04-24T08:03:14.240Z,5448
2017-04-24T08:04:22.879Z,5732
2017-04-24T08:05:31.504Z,5964
2017-04-24T08:06:40.132Z,6096
2017-04-24T08:07:48.786Z,5976
2017-04-24T08:08:57.416Z,5952
2017-04-24T08:10:06.045Z,6196
2017-04-24T08:11:14.671Z,6200
2017-04-24T08:12:23.295Z,6332
2017-04-24T08:13:31.960Z,6396
2017-04-24T08:14:41.002Z,6480
2017-04-24T08:15:49.932Z,6900
2017-04-24T08:16:58.557Z,7140
2017-04-24T08:18:07.490Z,7284
2017-04-24T08:19:16.130Z,6924
2017-04-24T08:20:24.761Z,6816
2017-04-24T08:21:33.722Z,7172
2017-04-24T08:22:42.654Z,6864
2017-04-24T08:23:51.295Z,7140
2017-04-24T08:25:00.239Z,6860
2017-04-24T08:26:08.881Z,6552
2017-04-24T08:27:17.504Z,6452
2017-04-24T08:28:26.135Z,5912
2017-04-24T08:29:34.771Z,5984
2017-04-24T08:30:43.402Z,6580
2017-04-24T08:31:52.029Z,6512
2017-04-24T08:33:00.655Z,6476
2017-04-24T08:34:09.289Z,6772
2017-04-24T08:35:17.924Z,6852
2017-04-24T08:36:26.559Z,6304
2017-04-24T08:37:35.189Z,6468
2017-04-24T08:38:44.130Z,6168
2017-04-24T08:39:52.762Z,5396
2017-04-24T08:41:01.394Z,4824
2017-04-24T08:42:10.032Z,4360
2017-04-24T08:43:18.669Z,4196
2017-04-24T08:44:27.310Z,4420
2017-04-24T08:45:36.252Z,4320
2017-04-24T08:46:44.888Z,4152
2017-04-24T08:47:53.828Z,5004
2017-04-24T08:49:02.479Z,4760
2017-04-24T08:50:11.130Z,4192
2017-04-24T08:51:19.757Z,3672
2017-04-24T08:52:28.383Z,3900
2017-04-24T08:53:37.017Z,4136
2017-04-24T08:54:45.648Z,4068
2017-04-24T08:55:54.302Z,3864
2017-04-24T08:57:02.925Z,4652
2017-04-24T08:58:11.873Z,4060
2017-04-24T08:59:20.819Z,3568
2017-04-24T09:00:29.452Z,4180
2017-04-24T09:01:38.083Z,3912
2017-04-24T09:02:46.714Z,3244
2017-04-24T09:03:55.348Z,3056
2017-04-24T09:05:03.979Z,3972
2017-04-24T09:06:12.615Z,3836
2017-04-24T09:07:21.252Z,3992
2017-04-24T09:08:30.187Z,3964
2017-04-24T09:09:39.129Z,4000
2017-04-24T09:10:48.067Z,3864
2017-04-24T09:11:56.702Z,4000
2017-04-24T09:13:05.666Z,4016
2017-04-24T09:14:14.303Z,4120
2017-04-24T09:15:22.933Z,4180
2017-04-24T09:16:31.559Z,4044
2017-04-24T09:17:40.197Z,3964
2017-04-24T09:18:49.180Z,3748
2017-04-24T09:19:57.816Z,4040
2017-04-24T09:21:06.448Z,3968
2017-04-24T09:22:15.384Z,4004
2017-04-24T09:23:24.010Z,4024
2017-04-24T09:24:32.679Z,4044
2017-04-24T09:25:41.313Z,4004
2017-04-24T09:26:49.939Z,4052
2017-04-24T09:27:58.894Z,4064
2017-04-24T09:29:07.529Z,3984
2017-04-24T09:30:16.166Z,4004
2017-04-24T09:31:24.791Z,4072
2017-04-24T09:32:33.425Z,4120
2017-04-24T09:33:42.057Z,4064
2017-04-24T09:34:50.687Z,4116
2017-04-24T09:35:59.321Z,4076
2017-04-24T09:37:07.953Z,3956
2017-04-24T09:38:16.594Z,3984
2017-04-24T09:39:25.230Z,3992
2017-04-24T09:40:34.167Z,4040
2017-04-24T09:41:42.799Z,4112
2017-04-24T09:42:51.437Z,4148
2017-04-24T09:44:00.067Z,4036
2017-04-24T09:45:08.715Z,4112
2017-04-24T09:46:17.351Z,4076
2017-04-24T09:47:25.988Z,4180
2017-04-24T09:48:34.618Z,3868
2017-04-24T09:49:43.246Z,4080
2017-04-24T09:50:51.883Z,4116
2017-04-24T09:52:00.515Z,3952
2017-04-24T09:53:09.144Z,4056
2017-04-24T09:54:18.091Z,4136
2017-04-24T09:55:26.726Z,4184
2017-04-24T09:56:35.359Z,4276
2017-04-24T09:57:43.992Z,4384
2017-04-24T09:58:52.626Z,4696
2017-04-24T10:00:01.254Z,5432
2017-04-24T10:01:09.885Z,6488
2017-04-24T10:02:18.518Z,7360
2017-04-24T10:03:27.753Z,7420
2017-04-24T10:04:36.703Z,6688
2017-04-24T10:05:45.344Z,6724
2017-04-24T10:06:53.975Z,7300
2017-04-24T10:08:02.608Z,6352
2017-04-24T10:09:11.248Z,7144
2017-04-24T10:10:19.899Z,7264
2017-04-24T10:11:28.549Z,6856
2017-04-24T10:12:37.178Z,6488
2017-04-24T10:13:45.823Z,6580
2017-04-24T10:14:54.464Z,7108
2017-04-24T10:16:03.707Z,6508
2017-04-24T10:17:12.345Z,6532
2017-04-24T10:18:20.975Z,7244
2017-04-24T10:19:29.921Z,7484
2017-04-24T10:20:38.557Z,6896
2017-04-24T10:21:47.198Z,6704
2017-04-24T10:22:55.821Z,7088
2017-04-24T10:24:04.455Z,7388
2017-04-24T10:25:13.092Z,7308
2017-04-24T10:26:21.731Z,7720
2017-04-24T10:27:30.359Z,7548
2017-04-24T10:28:38.990Z,6920
2017-04-24T10:29:47.943Z,6912
2017-04-24T10:30:56.588Z,6176
2017-04-24T10:32:05.227Z,6332
2017-04-24T10:33:14.177Z,5872
2017-04-24T10:34:22.818Z,5816
2017-04-24T10:35:31.455Z,6116
2017-04-24T10:36:40.086Z,5984
2017-04-24T10:37:48.721Z,4740
2017-04-24T10:38:57.367Z,5128
2017-04-24T10:40:06.001Z,4648
2017-04-24T10:41:14.639Z,4224
2017-04-24T10:42:23.274Z,4540
2017-04-24T10:43:31.917Z,4660
2017-04-24T10:44:40.556Z,4848
2017-04-24T10:45:49.190Z,5072
2017-04-24T10:46:57.821Z,4888
2017-04-24T10:48:06.467Z,5408
2017-04-24T10:49:15.130Z,5944
2017-04-24T10:50:24.067Z,5708
2017-04-24T10:51:32.701Z,4952
2017-04-24T10:52:41.339Z,5264
2017-04-24T10:53:50.285Z,5260
2017-04-24T10:54:58.917Z,4988
2017-04-24T10:56:07.559Z,5916
2017-04-24T10:57:16.193Z,5212
2017-04-24T10:58:24.828Z,4804
2017-04-24T10:59:33.462Z,4576
2017-04-24T11:00:42.094Z,5832
2017-04-24T11:01:50.724Z,6136
2017-04-24T11:02:59.361Z,5784
2017-04-24T11:04:08.003Z,6080
2017-04-24T11:05:16.645Z,5792
2017-04-24T11:06:25.279Z,4992
2017-04-24T11:07:33.920Z,4312
2017-04-24T11:08:42.557Z,3868
2017-04-24T11:09:51.193Z,4032
2017-04-24T11:10:59.844Z,4216
2017-04-24T11:12:08.483Z,4380
2017-04-24T11:13:17.112Z,5312
2017-04-24T11:14:26.395Z,5984
2017-04-24T11:15:35.045Z,5360
2017-04-24T11:16:43.681Z,7024
2017-04-24T11:17:52.311Z,7112
2017-04-24T11:19:00.948Z,6364
2017-04-24T11:20:09.581Z,5396
2017-04-24T11:21:18.220Z,5816
2017-04-24T11:22:26.852Z,4896
2017-04-24T11:23:35.483Z,6292
2017-04-24T11:24:44.419Z,6304
2017-04-24T11:25:53.370Z,6384
2017-04-24T11:27:02.017Z,6444
2017-04-24T11:28:10.665Z,5716
2017-04-24T11:29:19.295Z,5120
2017-04-24T11:30:27.926Z,5720
2017-04-24T11:31:36.558Z,5500
2017-04-24T11:32:45.193Z,5888
2017-04-24T11:33:53.825Z,4716
2017-04-24T11:35:02.764Z,5428
2017-04-24T11:36:11.396Z,4740
2017-04-24T11:37:20.027Z,5680
2017-04-24T11:38:28.977Z,3944
2017-04-24T11:39:37.617Z,6328
2017-04-24T11:40:46.554Z,6812
2017-04-24T11:41:55.185Z,6612
2017-04-24T11:43:03.822Z,5836
2017-04-24T11:44:12.763Z,5396
2017-04-24T11:45:21.708Z,5428
2017-04-24T11:46:30.652Z,3632
2017-04-24T11:47:39.284Z,4808
2017-04-24T11:48:48.238Z,4776
2017-04-24T11:49:56.890Z,5108
2017-04-24T11:51:05.523Z,5104
2017-04-24T11:52:14.156Z,5680
2017-04-24T11:53:22.790Z,6052
2017-04-24T11:54:31.738Z,6600
2017-04-24T11:55:40.379Z,6632
2017-04-24T11:56:49.013Z,6780
2017-04-24T11:57:57.659Z,6240
2017-04-24T11:59:06.294Z,6608
2017-04-24T12:00:14.925Z,6460
2017-04-24T12:01:23.550Z,5284
2017-04-24T12:02:32.185Z,5752
2017-04-24T12:03:40.852Z,6800
2017-04-24T12:04:49.488Z,7500
2017-04-24T12:05:58.151Z,8012
2017-04-24T12:07:06.789Z,8376
2017-04-24T12:08:15.751Z,6452
2017-04-24T12:09:24.707Z,6224
2017-04-24T12:10:33.647Z,6756
2017-04-24T12:11:42.294Z,5328
2017-04-24T12:12:50.935Z,6072
2017-04-24T12:13:59.878Z,6556
2017-04-24T12:15:08.509Z,8660
2017-04-24T12:16:17.142Z,8200
2017-04-24T12:17:25.777Z,6612
2017-04-24T12:18:34.419Z,6800
2017-04-24T12:19:43.071Z,7020
2017-04-24T12:20:51.703Z,6112
2017-04-24T12:22:00.340Z,6672
2017-04-24T12:23:08.978Z,6544
2017-04-24T12:24:17.608Z,6492
2017-04-24T12:25:26.549Z,6028
2017-04-24T12:26:35.182Z,6544
2017-04-24T12:27:44.143Z,7648
2017-04-24T12:28:52.777Z,6380
2017-04-24T12:30:01.938Z,6632
2017-04-24T12:31:10.602Z,6620
2017-04-24T12:32:19.550Z,6704
2017-04-24T12:33:28.191Z,7204
2017-04-24T12:34:36.831Z,7600
2017-04-24T12:35:45.467Z,7112
2017-04-24T12:36:54.099Z,6584
2017-04-24T12:38:02.735Z,6284
2017-04-24T12:39:11.377Z,5908
2017-04-24T12:40:20.018Z,6244
2017-04-24T12:41:28.655Z,7228
2017-04-24T12:42:37.594Z,6848
2017-04-24T12:43:46.233Z,9004
2017-04-24T12:44:54.872Z,8840
2017-04-24T12:46:03.509Z,7052
